EGGP/LPL METAR and TAF weather

Enter ICAO airport designator
Station Type Date Time Source
EGGP METAR 2022/12/05 14:20 UTC NOAA

EGGP 051420Z AUTO 05012KT 9999 OVC049/// ///// Q////


Station Type Date Time Source
EGGP Decoded METAR 2022/12/05 14:20 UTC NOAA

Liverpool Airport , United Kingdom (EGGP) 53-20N 002-51W
Dec 05, 2022 - 09:20 AM EST / 2022.12.05 1420 UTC
Wind: from the NE (050 degrees) at 14 MPH (12 KT):0
Visibility: greater than 7 mile(s):0
Sky conditions: overcast
ob: EGGP 051420Z AUTO 05012KT 9999 OVC049/// ///// Q////
cycle: 14

Station Type Date Time Source
EGGP TAF 2022/12/05 12:09 UTC NOAA

TAF EGGP 051056Z 0512/0612 05010KT 9999 SCT035 PROB30
TEMPO 0512/0520 BKN014
BECMG 0604/0607 34006KT

Example: see airport list